Time,TemperatureF,DewpointF,PressureIn,WindDirection,WindDirectionDegrees,WindSpeedMPH,WindSpeedGustMPH,Humidity,HourlyPrecipIn,Conditions,Clouds,dailyrainin,SoftwareType,DateUTC
2013-01-15 00:02:00,-3.0,-9.0,30.38,WSW,252,0.0,-999.0,74,-99.99,,,-99.99,,2013-01-15 07:02:00,
2013-01-15 00:12:00,-3.0,-9.0,30.38,WSW,252,0.0,-999.0,74,-99.99,,,-99.99,,2013-01-15 07:12:00,
2013-01-15 00:22:00,-4.0,-10.0,30.39,WSW,252,0.0,-999.0,76,-99.99,,,-99.99,,2013-01-15 07:22:00,
2013-01-15 00:32:00,-4.0,-10.0,30.39,WSW,252,0.0,-999.0,76,-99.99,,,-99.99,,2013-01-15 07:32:00,
2013-01-15 00:42:00,-4.0,-10.0,30.39,WSW,252,0.0,-999.0,76,-99.99,,,-99.99,,2013-01-15 07:42:00,
2013-01-15 00:52:00,-3.0,-9.0,30.39,WSW,252,0.0,-999.0,76,-99.99,,,-99.99,,2013-01-15 07:52:00,
2013-01-15 01:01:00,-4.0,-10.0,30.40,WSW,252,0.0,-999.0,74,-99.99,,,-99.99,,2013-01-15 08:01:00,
2013-01-15 01:12:00,-4.0,-10.0,30.40,WSW,252,0.0,-999.0,74,-99.99,,,-99.99,,2013-01-15 08:12:00,
2013-01-15 01:22:00,-4.0,-10.0,30.40,WSW,252,0.0,-999.0,75,-99.99,,,-99.99,,2013-01-15 08:22:00,
2013-01-15 01:32:00,-5.0,-11.0,30.40,WSW,252,0.0,-999.0,73,-99.99,,,-99.99,,2013-01-15 08:32:00,
2013-01-15 01:42:00,-5.0,-11.0,30.40,WSW,252,0.0,-999.0,73,-99.99,,,-99.99,,2013-01-15 08:42:00,
2013-01-15 01:52:00,-4.0,-10.0,30.40,WSW,252,0.0,-999.0,76,-99.99,,,-99.99,,2013-01-15 08:52:00,
2013-01-15 02:02:00,-4.0,-10.0,30.40,WSW,252,0.0,-999.0,76,-99.99,,,-99.99,,2013-01-15 09:02:00,
2013-01-15 02:11:00,-4.0,-10.0,30.40,WSW,252,0.0,-999.0,76,-99.99,,,-99.99,,2013-01-15 09:11:00,
2013-01-15 02:22:00,-5.0,-11.0,30.41,WSW,252,0.0,-999.0,74,-99.99,,,-99.99,,2013-01-15 09:22:00,
2013-01-15 02:33:00,-5.0,-11.0,30.41,WSW,252,0.0,-999.0,74,-99.99,,,-99.99,,2013-01-15 09:33:00,
2013-01-15 02:42:00,-5.0,-11.0,30.41,WSW,252,0.0,-999.0,74,-99.99,,,-99.99,,2013-01-15 09:42:00,
2013-01-15 02:52:00,-6.0,-12.0,30.42,WSW,252,0.0,-999.0,75,-99.99,,,-99.99,,2013-01-15 09:52:00,
2013-01-15 03:02:00,-5.0,-11.0,30.43,WSW,252,0.0,-999.0,75,-99.99,,,-99.99,,2013-01-15 10:02:00,
2013-01-15 03:11:00,-5.0,-11.0,30.43,WSW,252,0.0,-999.0,75,-99.99,,,-99.99,,2013-01-15 10:11:00,
2013-01-15 03:22:00,-6.0,-12.0,30.42,WSW,252,0.0,-999.0,74,-99.99,,,-99.99,,2013-01-15 10:22:00,
2013-01-15 03:32:00,-6.0,-12.0,30.43,WSW,252,0.0,-999.0,73,-99.99,,,-99.99,,2013-01-15 10:32:00,
2013-01-15 03:42:00,-6.0,-12.0,30.43,WSW,252,0.0,-999.0,73,-99.99,,,-99.99,,2013-01-15 10:42:00,
2013-01-15 03:52:00,-6.0,-12.0,30.43,WSW,252,0.0,-999.0,74,-99.99,,,-99.99,,2013-01-15 10:52:00,
2013-01-15 04:02:00,-5.0,-11.0,30.44,WSW,252,0.0,-999.0,75,-99.99,,,-99.99,,2013-01-15 11:02:00,
2013-01-15 04:11:00,-5.0,-11.0,30.44,WSW,252,0.0,-999.0,75,-99.99,,,-99.99,,2013-01-15 11:11:00,
2013-01-15 04:22:00,-6.0,-12.0,30.45,WSW,252,0.0,-999.0,74,-99.99,,,-99.99,,2013-01-15 11:22:00,
2013-01-15 04:32:00,-5.0,-11.0,30.45,WSW,252,0.0,-999.0,73,-99.99,,,-99.99,,2013-01-15 11:32:00,
2013-01-15 04:42:00,-5.0,-11.0,30.45,WSW,252,0.0,-999.0,73,-99.99,,,-99.99,,2013-01-15 11:42:00,
2013-01-15 04:52:00,-7.0,-14.0,30.44,WSW,252,0.0,-999.0,71,-99.99,,,-99.99,,2013-01-15 11:52:00,
2013-01-15 05:02:00,-6.0,-12.0,30.45,WSW,252,0.0,-999.0,73,-99.99,,,-99.99,,2013-01-15 12:02:00,
2013-01-15 05:11:00,-6.0,-12.0,30.45,WSW,252,0.0,-999.0,73,-99.99,,,-99.99,,2013-01-15 12:11:00,
2013-01-15 05:22:00,-6.0,-12.0,30.45,WSW,252,0.0,-999.0,73,-99.99,,,-99.99,,2013-01-15 12:22:00,
2013-01-15 05:32:00,-5.0,-11.0,30.45,WSW,252,0.0,-999.0,73,-99.99,,,-99.99,,2013-01-15 12:32:00,
2013-01-15 05:42:00,-5.0,-11.0,30.45,WSW,252,0.0,-999.0,73,-99.99,,,-99.99,,2013-01-15 12:42:00,
2013-01-15 05:53:00,-6.0,-12.0,30.45,WSW,252,0.0,-999.0,73,-99.99,,,-99.99,,2013-01-15 12:53:00,
2013-01-15 06:02:00,-6.0,-13.0,30.46,WSW,252,0.0,-999.0,72,-99.99,,,-99.99,,2013-01-15 13:02:00,
2013-01-15 06:12:00,-6.0,-13.0,30.46,WSW,252,0.0,-999.0,72,-99.99,,,-99.99,,2013-01-15 13:12:00,
2013-01-15 06:22:00,-5.0,-12.0,30.47,WSW,252,0.0,-999.0,72,-99.99,,,-99.99,,2013-01-15 13:22:00,
2013-01-15 06:32:00,-5.0,-12.0,30.48,WSW,252,0.0,-999.0,71,-99.99,,,-99.99,,2013-01-15 13:32:00,
2013-01-15 06:42:00,-5.0,-12.0,30.48,WSW,252,0.0,-999.0,71,-99.99,,,-99.99,,2013-01-15 13:42:00,
2013-01-15 06:53:00,-6.0,-12.0,30.48,WSW,252,0.0,-999.0,73,-99.99,,,-99.99,,2013-01-15 13:53:00,
2013-01-15 07:02:00,-6.0,-13.0,30.48,WSW,252,0.0,-999.0,72,-99.99,,,-99.99,,2013-01-15 14:02:00,
2013-01-15 07:12:00,-6.0,-13.0,30.48,WSW,252,0.0,-999.0,72,-99.99,,,-99.99,,2013-01-15 14:12:00,
2013-01-15 07:22:00,-6.0,-12.0,30.49,WSW,252,0.0,-999.0,73,-99.99,,,-99.99,,2013-01-15 14:22:00,
2013-01-15 07:32:00,-5.0,-12.0,30.51,WSW,252,0.0,-999.0,71,-99.99,,,-99.99,,2013-01-15 14:32:00,
2013-01-15 07:42:00,-5.0,-12.0,30.51,WSW,252,0.0,-999.0,71,-99.99,,,-99.99,,2013-01-15 14:42:00,
2013-01-15 07:53:00,-5.0,-12.0,30.51,WSW,252,0.0,-999.0,71,-99.99,,,-99.99,,2013-01-15 14:53:00,
2013-01-15 08:02:00,-5.0,-12.0,30.53,WSW,252,0.0,-999.0,71,-99.99,,,-99.99,,2013-01-15 15:02:00,
2013-01-15 08:12:00,-5.0,-12.0,30.53,WSW,252,0.0,-999.0,71,-99.99,,,-99.99,,2013-01-15 15:12:00,
2013-01-15 08:23:00,-4.0,-11.0,30.54,WSW,252,0.0,-999.0,71,-99.99,,,-99.99,,2013-01-15 15:23:00,
2013-01-15 08:32:00,-4.0,-11.0,30.55,WSW,252,0.0,-999.0,71,-99.99,,,-99.99,,2013-01-15 15:32:00,
2013-01-15 08:42:00,-4.0,-11.0,30.55,WSW,252,0.0,-999.0,71,-99.99,,,-99.99,,2013-01-15 15:42:00,
2013-01-15 08:53:00,-4.0,-11.0,30.55,WSW,252,0.0,-999.0,71,-99.99,,,-99.99,,2013-01-15 15:53:00,
2013-01-15 09:02:00,-2.0,-9.0,30.57,WSW,252,0.0,-999.0,71,-99.99,,,-99.99,,2013-01-15 16:02:00,
2013-01-15 09:11:00,-2.0,-9.0,30.57,WSW,252,0.0,-999.0,71,-99.99,,,-99.99,,2013-01-15 16:11:00,
2013-01-15 09:22:00,-2.0,-9.0,30.57,WSW,252,0.0,-999.0,71,-99.99,,,-99.99,,2013-01-15 16:22:00,
2013-01-15 09:33:00,0.0,-8.0,30.57,WSW,252,0.0,-999.0,69,-99.99,,,-99.99,,2013-01-15 16:33:00,
2013-01-15 09:42:00,0.0,-8.0,30.57,WSW,252,0.0,-999.0,69,-99.99,,,-99.99,,2013-01-15 16:42:00,
2013-01-15 09:53:00,0.0,-8.0,30.56,WSW,252,0.0,-999.0,67,-99.99,,,-99.99,,2013-01-15 16:53:00,
2013-01-15 10:03:00,0.0,-8.0,30.56,WSW,252,0.0,-999.0,67,-99.99,,,-99.99,,2013-01-15 17:03:00,
2013-01-15 10:12:00,0.0,-8.0,30.56,WSW,252,0.0,-999.0,67,-99.99,,,-99.99,,2013-01-15 17:12:00,
2013-01-15 10:22:00,4.0,-6.0,30.58,WSW,245,0.0,-999.0,63,-99.99,,,-99.99,,2013-01-15 17:22:00,
2013-01-15 10:32:00,6.0,-5.0,30.59,WSW,246,0.0,-999.0,59,-99.99,,,-99.99,,2013-01-15 17:32:00,
2013-01-15 10:43:00,6.0,-5.0,30.59,WSW,246,0.0,-999.0,59,-99.99,,,-99.99,,2013-01-15 17:43:00,
2013-01-15 10:53:00,8.0,-4.0,30.59,WSW,246,0.0,-999.0,56,-99.99,,,-99.99,,2013-01-15 17:53:00,
2013-01-15 11:02:00,8.0,-4.0,30.59,WSW,246,0.0,-999.0,56,-99.99,,,-99.99,,2013-01-15 18:02:00,
2013-01-15 11:12:00,8.0,-4.0,30.59,WSW,246,0.0,-999.0,56,-99.99,,,-99.99,,2013-01-15 18:12:00,
2013-01-15 11:22:00,8.0,-6.0,30.59,South,176,1.0,-999.0,53,-99.99,,,-99.99,,2013-01-15 18:22:00,
2013-01-15 11:33:00,10.0,-4.0,30.59,South,176,0.0,-999.0,53,-99.99,,,-99.99,,2013-01-15 18:33:00,
2013-01-15 11:43:00,10.0,-4.0,30.59,South,176,0.0,-999.0,53,-99.99,,,-99.99,,2013-01-15 18:43:00,
2013-01-15 11:53:00,13.0,-3.0,30.59,South,175,1.0,-999.0,49,-99.99,,,-99.99,,2013-01-15 18:53:00,
2013-01-15 12:02:00,13.0,-1.0,30.59,West,273,3.0,-999.0,52,-99.99,,,-99.99,,2013-01-15 19:02:00,
2013-01-15 12:12:00,13.0,-1.0,30.59,West,273,3.0,-999.0,52,-99.99,,,-99.99,,2013-01-15 19:12:00,
2013-01-15 12:22:00,14.0,0.0,30.58,West,281,3.0,-999.0,52,-99.99,,,-99.99,,2013-01-15 19:22:00,
2013-01-15 12:32:00,12.0,-1.0,30.57,West,265,5.0,-999.0,55,-99.99,,,-99.99,,2013-01-15 19:32:00,
2013-01-15 12:42:00,12.0,-1.0,30.57,West,265,5.0,-999.0,55,-99.99,,,-99.99,,2013-01-15 19:42:00,
2013-01-15 12:53:00,13.0,1.0,30.56,West,271,5.0,-999.0,57,-99.99,,,-99.99,,2013-01-15 19:53:00,
2013-01-15 13:02:00,13.0,1.0,30.56,West,271,5.0,-999.0,57,-99.99,,,-99.99,,2013-01-15 20:02:00,
2013-01-15 13:12:00,13.0,1.0,30.56,West,271,5.0,-999.0,57,-99.99,,,-99.99,,2013-01-15 20:12:00,
2013-01-15 13:22:00,13.0,0.0,30.57,West,267,5.0,-999.0,56,-99.99,,,-99.99,,2013-01-15 20:22:00,
2013-01-15 13:33:00,13.0,0.0,30.57,WNW,287,5.0,-999.0,54,-99.99,,,-99.99,,2013-01-15 20:33:00,
2013-01-15 13:43:00,13.0,0.0,30.57,WNW,287,5.0,-999.0,54,-99.99,,,-99.99,,2013-01-15 20:43:00,
2013-01-15 13:53:00,13.0,0.0,30.58,West,275,6.0,-999.0,55,-99.99,,,-99.99,,2013-01-15 20:53:00,
2013-01-15 14:02:00,13.0,0.0,30.58,West,275,6.0,-999.0,55,-99.99,,,-99.99,,2013-01-15 21:02:00,
2013-01-15 14:22:00,15.0,1.0,30.58,West,266,4.0,-999.0,52,-99.99,,,-99.99,,2013-01-15 21:22:00,
2013-01-15 14:33:00,15.0,0.0,30.60,WSW,257,4.0,-999.0,51,-99.99,,,-99.99,,2013-01-15 21:33:00,
2013-01-15 14:43:00,15.0,0.0,30.60,WSW,257,4.0,-999.0,51,-99.99,,,-99.99,,2013-01-15 21:43:00,
2013-01-15 14:53:00,16.0,1.0,30.60,West,264,4.0,-999.0,50,-99.99,,,-99.99,,2013-01-15 21:53:00,
2013-01-15 15:02:00,16.0,1.0,30.62,West,271,3.0,-999.0,50,-99.99,,,-99.99,,2013-01-15 22:02:00,
2013-01-15 15:12:00,16.0,1.0,30.62,West,271,3.0,-999.0,50,-99.99,,,-99.99,,2013-01-15 22:12:00,
2013-01-15 15:22:00,16.0,0.0,30.62,West,273,4.0,-999.0,48,-99.99,,,-99.99,,2013-01-15 22:22:00,
2013-01-15 15:32:00,15.0,-1.0,30.63,West,264,3.0,-999.0,49,-99.99,,,-99.99,,2013-01-15 22:32:00,
2013-01-15 15:42:00,15.0,-1.0,30.63,West,264,3.0,-999.0,49,-99.99,,,-99.99,,2013-01-15 22:42:00,
2013-01-15 15:52:00,15.0,-1.0,30.63,West,264,3.0,-999.0,49,-99.99,,,-99.99,,2013-01-15 22:52:00,
2013-01-15 16:02:00,16.0,0.0,30.64,WSW,248,2.0,-999.0,48,-99.99,,,-99.99,,2013-01-15 23:02:00,
2013-01-15 16:22:00,15.0,-1.0,30.65,West,264,3.0,-999.0,49,-99.99,,,-99.99,,2013-01-15 23:22:00,
2013-01-15 16:32:00,15.0,0.0,30.65,West,261,1.0,-999.0,50,-99.99,,,-99.99,,2013-01-15 23:32:00,
2013-01-15 17:02:00,12.0,-1.0,30.66,North,11,0.0,-999.0,56,-99.99,,,-99.99,,2013-01-16 00:02:00,
2013-01-15 17:22:00,11.0,-1.0,30.67,North,11,0.0,-999.0,57,-99.99,,,-99.99,,2013-01-16 00:22:00,
2013-01-15 17:32:00,10.0,-1.0,30.68,North,11,0.0,-999.0,59,-99.99,,,-99.99,,2013-01-16 00:32:00,
2013-01-15 17:53:00,8.0,-3.0,30.68,North,11,0.0,-999.0,61,-99.99,,,-99.99,,2013-01-16 00:53:00,
2013-01-15 18:02:00,7.0,-3.0,30.69,North,11,0.0,-999.0,63,-99.99,,,-99.99,,2013-01-16 01:02:00,
2013-01-15 18:22:00,7.0,-2.0,30.70,North,11,0.0,-999.0,65,-99.99,,,-99.99,,2013-01-16 01:22:00,
2013-01-15 18:32:00,6.0,-4.0,30.70,North,11,0.0,-999.0,63,-99.99,,,-99.99,,2013-01-16 01:32:00,
2013-01-15 18:53:00,6.0,-4.0,30.70,North,11,0.0,-999.0,64,-99.99,,,-99.99,,2013-01-16 01:53:00,
2013-01-15 19:02:00,5.0,-4.0,30.70,North,11,0.0,-999.0,65,-99.99,,,-99.99,,2013-01-16 02:02:00,
2013-01-15 19:12:00,5.0,-4.0,30.70,North,11,0.0,-999.0,65,-99.99,,,-99.99,,2013-01-16 02:12:00,
2013-01-15 19:22:00,4.0,-4.0,30.71,North,11,0.0,-999.0,67,-99.99,,,-99.99,,2013-01-16 02:22:00,
2013-01-15 19:32:00,4.0,-4.0,30.71,North,11,0.0,-999.0,67,-99.99,,,-99.99,,2013-01-16 02:32:00,
2013-01-15 19:42:00,4.0,-4.0,30.71,North,11,0.0,-999.0,67,-99.99,,,-99.99,,2013-01-16 02:42:00,
2013-01-15 19:53:00,4.0,-4.0,30.72,North,11,0.0,-999.0,67,-99.99,,,-99.99,,2013-01-16 02:53:00,
2013-01-15 20:02:00,4.0,-4.0,30.72,North,11,0.0,-999.0,70,-99.99,,,-99.99,,2013-01-16 03:02:00,
2013-01-15 20:11:00,4.0,-4.0,30.72,North,11,0.0,-999.0,70,-99.99,,,-99.99,,2013-01-16 03:11:00,
2013-01-15 20:22:00,4.0,-4.0,30.73,North,11,0.0,-999.0,68,-99.99,,,-99.99,,2013-01-16 03:22:00,
2013-01-15 20:32:00,4.0,-4.0,30.72,North,11,0.0,-999.0,69,-99.99,,,-99.99,,2013-01-16 03:32:00,
2013-01-15 20:42:00,4.0,-4.0,30.72,North,11,0.0,-999.0,69,-99.99,,,-99.99,,2013-01-16 03:42:00,
2013-01-15 20:53:00,4.0,-3.0,30.72,North,11,0.0,-999.0,71,-99.99,,,-99.99,,2013-01-16 03:53:00,
2013-01-15 21:02:00,3.0,-5.0,30.73,North,11,0.0,-999.0,70,-99.99,,,-99.99,,2013-01-16 04:02:00,
2013-01-15 21:11:00,3.0,-5.0,30.73,North,11,0.0,-999.0,70,-99.99,,,-99.99,,2013-01-16 04:11:00,
2013-01-15 21:22:00,3.0,-5.0,30.73,North,11,0.0,-999.0,70,-99.99,,,-99.99,,2013-01-16 04:22:00,
2013-01-15 21:32:00,3.0,-4.0,30.73,North,11,0.0,-999.0,71,-99.99,,,-99.99,,2013-01-16 04:32:00,
2013-01-15 21:42:00,3.0,-4.0,30.73,North,11,0.0,-999.0,71,-99.99,,,-99.99,,2013-01-16 04:42:00,
2013-01-15 21:52:00,3.0,-4.0,30.73,North,11,0.0,-999.0,71,-99.99,,,-99.99,,2013-01-16 04:52:00,
2013-01-15 22:03:00,3.0,-4.0,30.73,North,11,0.0,-999.0,71,-99.99,,,-99.99,,2013-01-16 05:03:00,
2013-01-15 22:12:00,3.0,-4.0,30.73,North,11,0.0,-999.0,71,-99.99,,,-99.99,,2013-01-16 05:12:00,
2013-01-15 22:22:00,3.0,-5.0,30.73,North,11,0.0,-999.0,69,-99.99,,,-99.99,,2013-01-16 05:22:00,
2013-01-15 22:32:00,3.0,-4.0,30.74,North,11,0.0,-999.0,72,-99.99,,,-99.99,,2013-01-16 05:32:00,
2013-01-15 22:42:00,3.0,-4.0,30.74,North,11,0.0,-999.0,72,-99.99,,,-99.99,,2013-01-16 05:42:00,
2013-01-15 22:53:00,3.0,-4.0,30.74,North,11,0.0,-999.0,71,-99.99,,,-99.99,,2013-01-16 05:53:00,
2013-01-15 23:02:00,3.0,-4.0,30.75,North,11,0.0,-999.0,73,-99.99,,,-99.99,,2013-01-16 06:02:00,
2013-01-15 23:11:00,3.0,-4.0,30.75,North,11,0.0,-999.0,73,-99.99,,,-99.99,,2013-01-16 06:11:00,
2013-01-15 23:22:00,3.0,-4.0,30.76,North,11,0.0,-999.0,73,-99.99,,,-99.99,,2013-01-16 06:22:00,
2013-01-15 23:32:00,3.0,-4.0,30.76,North,11,0.0,-999.0,72,-99.99,,,-99.99,,2013-01-16 06:32:00,
2013-01-15 23:42:00,3.0,-4.0,30.76,North,11,0.0,-999.0,72,-99.99,,,-99.99,,2013-01-16 06:42:00,
2013-01-15 23:52:00,3.0,-4.0,30.76,North,11,0.0,-999.0,73,-99.99,,,-99.99,,2013-01-16 06:52:00,